Flight Track Log - Related Links

Times and Time Zones

All times are in EST time to prevent confusion due to time zone crossing. See the N9305N flight status page for this flight to view local times or setup timezone preferences in your user account.

Time Position Orientation Groundspeed Altitude Reporting Facility
EST Latitude Longitude Course Direction KTS MPH feet Rate Location/Type
Thu 08:44:55 AM 28.5500 -81.3167 360° North 92 106 400  Level Orlando TRACON
Thu 08:45:01 AM 28.5500 -81.3167 41° Northeast 89 102 500 818 Climbing Orlando TRACON
Thu 08:46:01 AM 28.5667 -81.3000 41° Northeast 82 94 1,300 744 Climbing Orlando TRACON
Thu 08:47:02 AM 28.5667 -81.2667 90° East 90 104 2,000 397 Climbing Orlando TRACON
Thu 08:48:02 AM 28.6000 -81.2667 360° North 97 112 2,100 150 Climbing Orlando TRACON
Thu 08:49:02 AM 28.6167 -81.2667 360° North 81 93 2,300 350 Climbing Orlando TRACON
Thu 08:50:02 AM 28.6333 -81.3000 300° West 86 99 2,800 350 Climbing Orlando TRACON
Thu 08:51:02 AM 28.6500 -81.3167 319° Northwest 91 105 3,000 150 Climbing Orlando TRACON
Thu 08:52:02 AM 28.6667 -81.3333 319° Northwest 85 98 3,100  Climbing Orlando TRACON
Thu 08:53:02 AM 28.6833 -81.3500 319° Northwest 90 104 3,000 -50 Descending Orlando TRACON
Thu 08:54:02 AM 28.6833 -81.3833 270° West 90 104 3,000  Level Orlando TRACON
Thu 08:55:02 AM 28.7000 -81.4000 319° Northwest 87 100 3,000 300 Level Orlando TRACON
Thu 08:56:02 AM 28.7167 -81.4167 319° Northwest 80 92 3,600 550 Climbing Orlando TRACON
Thu 08:57:02 AM 28.7333 -81.4333 319° Northwest 66 76 4,100 200 Climbing Orlando TRACON
Thu 08:58:02 AM 28.7500 -81.4667 300° West 79 91 4,000 -50 Descending Orlando TRACON
Thu 08:59:02 AM 28.7500 -81.4833 270° West 83 96 4,000  Level Orlando TRACON
Thu 09:00:02 AM 28.7667 -81.5167 300° West 84 97 4,000 30 Level Orlando TRACON
Thu 09:02:20 AM 28.7922 -81.5658 301° West 85 98 4,100 -30 Climbing Jacksonville Center
Thu 09:03:21 AM 28.8047 -81.5894 301° West 87 100 3,900 -47 Descending Jacksonville Center
Thu 09:04:28 AM 28.8197 -81.6153 304° West 88 101 4,000 45 Climbing Jacksonville Center
Thu 09:05:35 AM 28.8325 -81.6364 305° West 82 94 4,000  Level Jacksonville Center
Thu 09:06:36 AM 28.8472 -81.6600 305° West 86 99 4,000  Level Jacksonville Center
Thu 09:07:25 AM 28.8581 -81.6811 300° West 86 99 4,000  Level Jacksonville Center
Thu 09:08:32 AM 28.8728 -81.7047 305° West 90 104 4,000  Level Jacksonville Center
Thu 09:09:33 AM 28.8875 -81.7283 305° West 90 104 4,000  Level Jacksonville Center
Thu 09:10:28 AM 28.9003 -81.7494 305° West 90 104 4,000  Level Jacksonville Center
Thu 09:11:35 AM 28.9172 -81.7778 304° West 90 104 4,000  Level Jacksonville Center
Thu 09:12:36 AM 28.9383 -81.7942 326° Northwest 95 109 4,000  Level Jacksonville Center
Thu 09:13:37 AM 28.9592 -81.8106 325° Northwest 93 107 4,000  Level Jacksonville Center
Thu 09:14:37 AM 28.9822 -81.8219 337° Northwest 94 108 4,000  Level Jacksonville Center
Thu 09:15:39 AM 29.0075 -81.8383 330° Northwest 92 106 4,000  Level Jacksonville Center
Thu 09:16:40 AM 29.0286 -81.8525 330° Northwest 91 105 4,000  Level Jacksonville Center
Thu 09:17:35 AM 29.0475 -81.8642 332° Northwest 92 106 4,000  Level Jacksonville Center
Thu 09:18:35 AM 29.0725 -81.8781 334° Northwest 93 107 4,000  Level Jacksonville Center
Thu 09:19:36 AM 29.0956 -81.8897 336° Northwest 94 108 4,000  Level Jacksonville Center
Thu 09:20:38 AM 29.1208 -81.9014 338° Northwest 93 107 4,000  Level Jacksonville Center
Thu 09:21:39 AM 29.1439 -81.9178 328° Northwest 92 106 4,000  Level Jacksonville Center
Thu 09:22:39 AM 29.1669 -81.9319 332° Northwest 92 106 4,000  Level Jacksonville Center
Thu 09:23:41 AM 29.1878 -81.9458 330° Northwest 90 104 4,000  Level Jacksonville Center
Thu 09:24:42 AM 29.2089 -81.9625 325° Northwest 91 105 4,000  Level Jacksonville Center
Thu 09:25:43 AM 29.2319 -81.9764 332° Northwest 92 106 4,000  Level Jacksonville Center
Thu 09:26:44 AM 29.2550 -81.9906 332° Northwest 91 105 4,000  Level Jacksonville Center
Thu 09:27:45 AM 29.2803 -82.0069 331° Northwest 94 108 4,000  Level Jacksonville Center
Thu 09:28:46 AM 29.3011 -82.0211 329° Northwest 93 107 4,000  Level Jacksonville Center
Thu 09:29:41 AM 29.3242 -82.0350 332° Northwest 93 107 4,000  Level Jacksonville Center
Thu 09:30:42 AM 29.3453 -82.0492 330° Northwest 93 107 4,000  Level Jacksonville Center
Thu 09:31:49 AM 29.3703 -82.0656 330° Northwest 91 105 4,000  Level Jacksonville Center
Thu 09:32:44 AM 29.3911 -82.0775 333° Northwest 91 105 4,000  Level Jacksonville Center
Thu 09:33:51 AM 29.4144 -82.0939 329° Northwest 94 108 4,000  Level Jacksonville Center
Thu 09:34:52 AM 29.4375 -82.1103 328° Northwest 93 107 4,000  Level Jacksonville Center
Thu 09:35:53 AM 29.4606 -82.1244 332° Northwest 94 108 4,000  Level Jacksonville Center
Thu 09:36:54 AM 29.4833 -82.1386 332° Northwest 94 108 4,000  Level Jacksonville Center
Thu 09:37:55 AM 29.5086 -82.1553 330° Northwest 95 109 4,000  Level Jacksonville Center
Thu 09:38:56 AM 29.5317 -82.1717 328° Northwest 95 109 4,000  Level Jacksonville Center
Thu 09:39:51 AM 29.5525 -82.1858 329° Northwest 94 108 4,000  Level Jacksonville Center
Thu 09:40:52 AM 29.5756 -82.2000 332° Northwest 94 108 4,000  Level Jacksonville Center
Thu 09:41:53 AM 29.5986 -82.2142 332° Northwest 95 109 4,000  Level Jacksonville Center
Thu 09:42:54 AM 29.6217 -82.2283 332° Northwest 96 110 4,000  Level Jacksonville Center
Thu 09:43:55 AM 29.6447 -82.2450 328° Northwest 96 110 4,000 -98 Level Jacksonville Center
Thu 09:44:56 AM 29.6742 -82.2567 341° North 102 117 3,800 -47 Descending Jacksonville Center
Thu 09:46:03 AM 29.6844 -82.2256 69° East 119 137 3,900 49 Climbing Jacksonville Center
Thu 09:46:58 AM 29.6675 -82.1969 124° Southeast 119 137 3,900 -148 Level Jacksonville Center
Thu 09:48:05 AM 29.6528 -82.1614 115° Southeast 126 145 3,600 -378 Descending Jacksonville Center
Thu 09:49:05 AM 29.6294 -82.1281 129° Southeast 124 143 3,100 -443 Descending Jacksonville Center
Thu 09:50:07 AM 29.6106 -82.0994 127° Southeast 115 132 2,700 -293 Descending Jacksonville Center
Thu 09:51:08 AM 29.6294 -82.0897 24° Northeast 76 87 2,500 -344 Descending Jacksonville Center
Thu 09:52:09 AM 29.6378 -82.1161 290° West 90 104 2,000 -393 Descending Jacksonville Center
Thu 09:53:10 AM 29.6464 -82.1397 293° West 89 102 1,700 -197 Descending Jacksonville Center
Thu 09:54:11 AM 29.6569 -82.1683 293° West 84 97 1,600 -197 Descending Jacksonville Center
Thu 09:55:12 AM 29.6653 -82.1897 294° West 79 91 1,300 -443 Descending Jacksonville Center
Thu 09:56:13 AM 29.6739 -82.2161 291° West 83 96 700 -375 Descending Jacksonville Center
Thu 09:57:20 AM 29.6803 -82.2425 286° West 80 92 500 -179 Descending Jacksonville Center
Thu 09:59:00 AM 29.6833 -82.2667 330° Northwest  Level FlightAware Approximate

Login

Don't have an account? Register now (free) for customized features, flight alerts, and more!